createdAt,value
2018-01-19T00:01:59.407Z,2.13
2018-01-19T00:04:27.723Z,2.00
2018-01-19T00:06:56.047Z,1.53
2018-01-19T00:09:24.375Z,1.53
2018-01-19T00:11:52.697Z,1.53
2018-01-19T00:14:21.024Z,1.83
2018-01-19T00:16:49.353Z,1.60
2018-01-19T00:19:17.680Z,2.33
2018-01-19T00:21:46.036Z,1.70
2018-01-19T00:24:14.378Z,1.43
2018-01-19T00:26:42.713Z,1.80
2018-01-19T00:29:11.075Z,2.40
2018-01-19T00:31:39.409Z,1.40
2018-01-19T00:34:07.752Z,1.23
2018-01-19T00:36:36.071Z,1.30
2018-01-19T00:39:04.375Z,0.77
2018-01-19T00:41:32.727Z,1.47
2018-01-19T00:44:01.057Z,0.70
2018-01-19T00:46:29.392Z,0.97
2018-01-19T00:48:57.807Z,1.23
2018-01-19T00:51:26.112Z,0.93
2018-01-19T00:53:54.426Z,1.20
2018-01-19T00:56:22.798Z,0.80
2018-01-19T00:59:03.515Z,1.33
2018-01-19T01:01:31.822Z,1.40
2018-01-19T01:04:00.163Z,1.93
2018-01-19T01:06:28.507Z,1.03
2018-01-19T01:08:56.853Z,1.57
2018-01-19T01:11:25.200Z,1.57
2018-01-19T01:13:53.520Z,2.40
2018-01-19T01:16:21.856Z,1.47
2018-01-19T01:18:50.161Z,1.50
2018-01-19T01:21:18.483Z,1.73
2018-01-19T01:23:46.804Z,1.50
2018-01-19T01:26:15.140Z,1.27
2018-01-19T01:28:43.469Z,1.90
2018-01-19T01:31:11.781Z,1.67
2018-01-19T01:33:40.091Z,1.70
2018-01-19T01:36:08.423Z,1.47
2018-01-19T01:38:36.768Z,1.57
2018-01-19T01:41:05.077Z,1.20
2018-01-19T01:43:33.416Z,1.80
2018-01-19T01:46:01.732Z,1.60
2018-01-19T01:48:30.087Z,1.60
2018-01-19T01:50:58.387Z,1.17
2018-01-19T01:53:26.718Z,1.90
2018-01-19T01:55:55.030Z,1.00
2018-01-19T01:58:23.387Z,1.30
2018-01-19T02:00:51.735Z,1.57
2018-01-19T02:03:20.071Z,1.77
2018-01-19T02:05:48.410Z,2.40
2018-01-19T02:08:16.722Z,1.53
2018-01-19T02:10:45.072Z,3.37
2018-01-19T02:13:13.493Z,3.83
2018-01-19T02:15:41.821Z,3.77
2018-01-19T02:18:10.136Z,2.90
2018-01-19T02:20:38.456Z,1.30
2018-01-19T02:23:06.779Z,1.30
2018-01-19T02:25:35.352Z,2.10
2018-01-19T02:28:03.693Z,2.17
2018-01-19T02:30:32.013Z,2.00
2018-01-19T02:33:00.343Z,1.33
2018-01-19T02:35:28.660Z,0.97
2018-01-19T02:37:57.028Z,1.13
2018-01-19T02:40:25.340Z,0.80
2018-01-19T02:42:53.632Z,1.43
2018-01-19T02:45:21.968Z,1.03
2018-01-19T02:47:50.306Z,1.30
2018-01-19T02:50:18.618Z,1.47
2018-01-19T02:52:46.939Z,2.83
2018-01-19T02:55:15.277Z,1.20
2018-01-19T02:57:43.596Z,1.13
2018-01-19T03:00:11.919Z,0.90
2018-01-19T03:02:40.224Z,0.70
2018-01-19T03:05:08.575Z,1.10
2018-01-19T03:07:36.872Z,0.60
2018-01-19T03:10:05.196Z,0.63
2018-01-19T03:12:33.497Z,0.73
2018-01-19T03:15:01.811Z,0.53
2018-01-19T03:17:30.110Z,0.50
2018-01-19T03:19:58.426Z,0.70
2018-01-19T03:22:26.732Z,0.70
2018-01-19T03:24:55.110Z,0.70
2018-01-19T03:27:23.442Z,0.60
2018-01-19T03:29:51.746Z,0.67
2018-01-19T03:32:20.077Z,0.60
2018-01-19T03:34:48.385Z,0.60
2018-01-19T03:37:16.693Z,0.77
2018-01-19T03:39:45.000Z,0.53
2018-01-19T03:42:13.352Z,1.00
2018-01-19T03:44:41.679Z,0.67
2018-01-19T03:47:09.999Z,0.90
2018-01-19T03:49:38.313Z,0.77
2018-01-19T03:52:06.628Z,0.70
2018-01-19T03:54:35.420Z,0.90
2018-01-19T03:57:03.727Z,1.33
2018-01-19T03:59:32.074Z,0.90
2018-01-19T04:02:00.378Z,1.00
2018-01-19T04:04:28.696Z,0.93
2018-01-19T04:06:56.999Z,0.90
2018-01-19T04:09:25.315Z,0.73
2018-01-19T04:11:53.628Z,1.20
2018-01-19T04:14:21.951Z,1.10
2018-01-19T04:16:50.366Z,0.90
2018-01-19T04:19:18.673Z,1.03
2018-01-19T04:21:47.019Z,1.10
2018-01-19T04:24:15.341Z,1.10
2018-01-19T04:26:43.793Z,0.73
2018-01-19T04:29:12.104Z,0.97
2018-01-19T04:31:40.432Z,1.03
2018-01-19T04:34:08.774Z,0.70
2018-01-19T04:36:37.088Z,1.00
2018-01-19T04:39:05.407Z,1.00
2018-01-19T04:41:33.705Z,0.90
2018-01-19T04:44:02.040Z,0.90
2018-01-19T04:46:30.352Z,0.73
2018-01-19T04:48:58.688Z,1.00
2018-01-19T04:51:27.058Z,1.10
2018-01-19T04:53:55.397Z,0.83
2018-01-19T04:56:23.743Z,0.90
2018-01-19T04:58:52.049Z,0.90
2018-01-19T05:01:20.446Z,0.70
2018-01-19T05:03:48.762Z,1.37
2018-01-19T05:06:17.126Z,0.70
2018-01-19T05:08:45.494Z,1.03
2018-01-19T05:11:13.820Z,0.80
2018-01-19T05:13:42.173Z,0.90
2018-01-19T05:16:10.584Z,0.90
2018-01-19T05:18:38.919Z,0.87
2018-01-19T05:21:07.244Z,0.90
2018-01-19T05:23:35.612Z,1.07
2018-01-19T05:26:03.936Z,0.70
2018-01-19T05:28:32.298Z,0.90
2018-01-19T05:31:00.657Z,0.70
2018-01-19T05:33:28.987Z,0.80
2018-01-19T05:35:57.291Z,0.97
2018-01-19T05:38:25.593Z,0.80
2018-01-19T05:40:53.920Z,0.60
2018-01-19T05:43:22.227Z,1.00
2018-01-19T05:45:50.591Z,0.87
2018-01-19T05:48:18.908Z,0.90
2018-01-19T05:50:47.231Z,0.90
2018-01-19T05:53:15.585Z,1.30
2018-01-19T05:55:43.925Z,1.57
2018-01-19T05:58:12.246Z,1.17
2018-01-19T06:00:40.556Z,0.93
2018-01-19T06:03:08.948Z,0.93
2018-01-19T06:05:37.272Z,0.70
2018-01-19T06:08:05.616Z,1.40
2018-01-19T06:10:33.959Z,0.60
2018-01-19T06:13:02.272Z,0.90
2018-01-19T06:15:30.602Z,0.70
2018-01-19T06:17:58.961Z,1.00
2018-01-19T06:20:27.279Z,1.23
2018-01-19T06:22:55.610Z,0.80
2018-01-19T06:25:23.926Z,1.20
2018-01-19T06:27:52.250Z,0.90
2018-01-19T06:30:20.554Z,1.10
2018-01-19T06:32:48.958Z,0.70
2018-01-19T06:35:17.360Z,1.10
2018-01-19T06:37:45.714Z,1.30
2018-01-19T06:40:14.132Z,1.27
2018-01-19T06:42:42.469Z,1.40
2018-01-19T06:45:10.781Z,1.00
2018-01-19T06:47:39.093Z,1.43
2018-01-19T06:50:07.411Z,0.80
2018-01-19T06:52:35.757Z,1.00
2018-01-19T06:55:04.068Z,1.27
2018-01-19T06:57:32.412Z,1.40
2018-01-19T07:00:00.777Z,2.10
2018-01-19T07:02:29.092Z,1.47
2018-01-19T07:04:57.394Z,1.13
2018-01-19T07:07:25.731Z,1.20
2018-01-19T07:09:54.054Z,0.93
2018-01-19T07:12:22.363Z,1.20
2018-01-19T07:14:50.692Z,1.30
2018-01-19T07:17:19.033Z,1.10
2018-01-19T07:19:47.378Z,1.30
2018-01-19T07:22:15.729Z,1.43
2018-01-19T07:24:44.084Z,1.30
2018-01-19T07:27:12.429Z,1.27
2018-01-19T07:29:40.776Z,1.20
2018-01-19T07:32:09.088Z,0.97
2018-01-19T07:34:37.419Z,1.40
2018-01-19T07:37:05.746Z,1.10
2018-01-19T07:39:34.936Z,1.23
2018-01-19T07:42:03.291Z,1.20
2018-01-19T07:44:31.612Z,1.50
2018-01-19T07:47:00.177Z,1.47
2018-01-19T07:49:28.474Z,1.37
2018-01-19T07:51:56.790Z,1.00
2018-01-19T07:54:25.396Z,1.47
2018-01-19T07:56:53.713Z,1.50
2018-01-19T07:59:22.388Z,1.57
2018-01-19T08:01:50.791Z,1.17
2018-01-19T08:04:19.123Z,1.40
2018-01-19T08:06:47.744Z,1.10
2018-01-19T08:09:16.179Z,0.93
2018-01-19T08:11:44.544Z,1.20
2018-01-19T08:14:15.674Z,0.87
2018-01-19T08:16:44.011Z,1.47
2018-01-19T08:19:12.344Z,1.07
2018-01-19T08:21:40.754Z,0.70
2018-01-19T08:24:09.101Z,0.87
2018-01-19T08:26:37.668Z,1.33
2018-01-19T08:29:06.222Z,1.57
2018-01-19T08:31:34.594Z,1.77
2018-01-19T08:34:03.189Z,1.10
2018-01-19T08:36:31.520Z,1.00
2018-01-19T08:38:59.842Z,0.87
2018-01-19T08:41:28.249Z,1.00
2018-01-19T08:43:56.672Z,1.00
2018-01-19T08:46:25.145Z,1.00
2018-01-19T08:48:53.436Z,0.80
2018-01-19T08:51:21.791Z,1.43
2018-01-19T08:53:50.886Z,0.90
2018-01-19T08:56:19.188Z,1.20
2018-01-19T08:58:47.748Z,1.50
2018-01-19T09:01:16.100Z,1.60
2018-01-19T09:03:44.609Z,1.70
2018-01-19T09:06:13.940Z,1.10
2018-01-19T09:08:42.317Z,1.07
2018-01-19T09:11:10.689Z,1.47
2018-01-19T09:13:39.008Z,1.50
2018-01-19T09:18:40.645Z,1.47
2018-01-19T09:23:41.538Z,1.20
2018-01-19T09:26:09.897Z,1.27
2018-01-19T09:36:16.773Z,1.50
2018-01-19T09:38:45.240Z,1.50
2018-01-19T09:41:13.607Z,1.43
2018-01-19T09:43:42.011Z,1.90
2018-01-19T09:46:10.678Z,1.63
2018-01-19T09:48:39.067Z,1.10
2018-01-19T09:51:07.388Z,1.43
2018-01-19T09:53:35.852Z,1.90
2018-01-19T09:56:07.856Z,1.90
2018-01-19T09:58:36.197Z,1.60
2018-01-19T10:01:04.794Z,1.73
2018-01-19T10:03:33.216Z,1.83
2018-01-19T10:06:02.503Z,1.10
2018-01-19T10:08:30.895Z,3.00
2018-01-19T10:10:59.220Z,1.60
2018-01-19T10:13:27.585Z,1.13
2018-01-19T10:15:56.040Z,1.00
2018-01-19T10:18:24.579Z,1.53
2018-01-19T10:23:27.836Z,1.00
2018-01-19T10:26:15.181Z,1.93
2018-01-19T10:28:43.497Z,1.43
2018-01-19T10:31:11.887Z,1.50
2018-01-19T10:33:40.227Z,1.20
2018-01-19T10:38:44.623Z,1.03
2018-01-19T10:41:13.164Z,1.30
2018-01-19T10:43:41.746Z,1.10
2018-01-19T10:46:10.753Z,1.10
2018-01-19T10:48:39.064Z,1.23
2018-01-19T10:51:08.068Z,1.40
2018-01-19T10:53:36.769Z,1.03
2018-01-19T10:56:09.020Z,0.80
2018-01-19T10:58:37.348Z,2.07
2018-01-19T11:01:05.759Z,1.47
2018-01-19T11:03:34.163Z,1.13
2018-01-19T11:06:02.551Z,1.60
2018-01-19T11:08:30.868Z,2.17
2018-01-19T11:11:04.964Z,1.50
2018-01-19T11:13:33.429Z,1.27
2018-01-19T11:16:01.943Z,1.00
2018-01-19T11:18:30.264Z,1.33
2018-01-19T11:20:58.724Z,1.70
2018-01-19T11:23:27.101Z,1.30
2018-01-19T11:25:55.416Z,1.37
2018-01-19T11:28:23.825Z,1.20
2018-01-19T11:30:52.150Z,1.40
2018-01-19T11:33:20.565Z,1.37
2018-01-19T11:35:49.035Z,1.27
2018-01-19T11:38:17.502Z,1.53
2018-01-19T11:40:46.531Z,1.20
2018-01-19T11:43:14.996Z,1.47
2018-01-19T11:45:43.430Z,1.03
2018-01-19T11:48:11.840Z,1.30
2018-01-19T11:50:40.261Z,1.90
2018-01-19T11:53:08.584Z,1.10
2018-01-19T11:55:36.948Z,1.37
2018-01-19T11:58:09.209Z,1.40
2018-01-19T12:00:38.532Z,1.10
2018-01-19T12:03:06.972Z,1.70
2018-01-19T12:05:35.571Z,1.33
2018-01-19T12:08:05.946Z,1.50
2018-01-19T12:10:34.318Z,1.33
2018-01-19T12:13:04.663Z,1.87
2018-01-19T12:15:33.027Z,2.30
2018-01-19T12:18:01.390Z,0.90
2018-01-19T12:20:29.925Z,1.10
2018-01-19T12:22:58.337Z,1.43
2018-01-19T12:25:27.060Z,1.57
2018-01-19T12:30:33.562Z,1.20
2018-01-19T12:35:34.881Z,1.10
2018-01-19T12:38:03.246Z,1.10
2018-01-19T12:40:31.632Z,1.13
2018-01-19T12:43:00.027Z,0.90
2018-01-19T12:45:28.455Z,1.20
2018-01-19T12:47:56.969Z,1.10
2018-01-19T12:50:25.754Z,1.47
2018-01-19T12:52:54.441Z,1.20
2018-01-19T12:55:26.797Z,1.10
2018-01-19T12:57:56.011Z,1.43
2018-01-19T13:00:25.658Z,1.10
2018-01-19T13:02:57.577Z,1.23
2018-01-19T13:05:25.976Z,1.37
2018-01-19T13:07:56.213Z,1.43
2018-01-19T13:10:24.688Z,1.03
2018-01-19T13:15:26.257Z,1.23
2018-01-19T13:17:54.583Z,1.83
2018-01-19T13:20:23.021Z,1.23
2018-01-19T13:25:24.003Z,1.37
2018-01-19T13:27:52.350Z,1.57
2018-01-19T13:30:20.718Z,1.20
2018-01-19T13:32:49.414Z,1.37
2018-01-19T13:35:17.948Z,1.30
2018-01-19T13:37:46.296Z,0.90
2018-01-19T13:40:14.675Z,1.43
2018-01-19T13:42:43.120Z,1.50
2018-01-19T13:45:11.424Z,1.20
2018-01-19T13:47:39.907Z,2.00
2018-01-19T13:50:08.222Z,2.00
2018-01-19T13:52:36.552Z,0.73
2018-01-19T13:55:05.296Z,5.03
2018-01-19T13:57:33.997Z,4.80
2018-01-19T14:00:05.784Z,7.07
2018-01-19T14:02:34.216Z,4.20
2018-01-19T14:05:02.962Z,5.20
2018-01-19T14:07:32.023Z,3.17
2018-01-19T14:10:00.457Z,1.67
2018-01-19T14:12:28.877Z,4.03
2018-01-19T14:14:57.225Z,1.93
2018-01-19T14:20:00.748Z,1.43
2018-01-19T14:22:29.164Z,1.90
2018-01-19T14:27:30.965Z,4.53
2018-01-19T14:29:59.458Z,5.60
2018-01-19T14:32:27.788Z,4.63
2018-01-19T14:34:56.486Z,3.77
2018-01-19T14:37:24.916Z,3.50
2018-01-19T14:42:29.576Z,5.17
2018-01-19T14:44:57.886Z,2.47
2018-01-19T14:49:59.691Z,2.20
2018-01-19T14:52:30.095Z,1.80
2018-01-19T14:54:58.743Z,1.67
2018-01-19T14:57:27.130Z,1.63
2018-01-19T14:59:55.436Z,1.43
2018-01-19T15:02:23.796Z,1.37
2018-01-19T15:04:52.246Z,1.60
2018-01-19T15:07:21.114Z,1.50
2018-01-19T15:09:49.525Z,1.60
2018-01-19T15:12:17.909Z,1.60
2018-01-19T15:14:46.697Z,1.20
2018-01-19T15:19:48.072Z,1.53
2018-01-19T15:22:16.460Z,1.77
2018-01-19T15:24:44.820Z,1.37
2018-01-19T15:27:13.166Z,1.30
2018-01-19T15:29:46.493Z,2.43
2018-01-19T15:32:16.068Z,1.77
2018-01-19T15:34:44.436Z,1.63
2018-01-19T15:37:13.163Z,1.47
2018-01-19T15:39:41.578Z,1.30
2018-01-19T15:42:09.926Z,1.63
2018-01-19T15:47:10.727Z,1.93
2018-01-19T15:49:39.493Z,2.27
2018-01-19T15:54:40.500Z,2.10
2018-01-19T15:57:08.872Z,1.90
2018-01-19T15:59:37.209Z,1.60
2018-01-19T16:07:37.843Z,2.80
2018-01-19T16:12:42.424Z,1.93
2018-01-19T16:15:10.741Z,2.47
2018-01-19T16:17:39.222Z,2.07
2018-01-19T16:20:07.750Z,2.10
2018-01-19T16:22:36.065Z,1.83
2018-01-19T16:25:04.403Z,1.70
2018-01-19T16:27:32.716Z,2.00
2018-01-19T16:30:02.231Z,2.10
2018-01-19T16:32:31.240Z,2.10
2018-01-19T16:35:00.523Z,2.47
2018-01-19T16:37:29.938Z,1.93
2018-01-19T16:39:58.336Z,2.53
2018-01-19T16:42:28.461Z,2.13
2018-01-19T16:50:03.755Z,1.80
2018-01-19T16:52:32.152Z,3.13
2018-01-19T16:55:00.640Z,2.20
2018-01-19T17:02:41.308Z,1.80
2018-01-19T17:05:09.644Z,2.53
2018-01-19T17:07:37.999Z,1.80
2018-01-19T17:10:07.050Z,1.70
2018-01-19T17:12:35.515Z,2.17
2018-01-19T17:15:03.865Z,2.20
2018-01-19T17:17:32.192Z,2.43
2018-01-19T17:20:00.574Z,1.93
2018-01-19T17:22:29.418Z,2.57
2018-01-19T17:24:57.786Z,2.63
2018-01-19T17:32:31.203Z,2.13
2018-01-19T17:35:01.238Z,2.70
2018-01-19T17:37:29.617Z,1.90
2018-01-19T17:42:33.407Z,2.50
2018-01-19T17:45:01.726Z,2.23
2018-01-19T17:47:30.116Z,2.27
2018-01-19T17:49:59.634Z,1.93
2018-01-19T17:52:28.202Z,2.33
2018-01-19T17:54:57.358Z,3.13
2018-01-19T17:57:29.364Z,2.43
2018-01-19T17:59:57.745Z,2.60
2018-01-19T18:02:29.708Z,1.67
2018-01-19T18:04:58.030Z,1.87
2018-01-19T18:07:26.360Z,1.77
2018-01-19T18:09:54.740Z,2.93
2018-01-19T18:12:23.112Z,2.40
2018-01-19T18:14:51.559Z,2.53
2018-01-19T18:17:20.025Z,2.00
2018-01-19T18:19:48.545Z,2.23
2018-01-19T18:22:19.059Z,2.93
2018-01-19T18:24:47.505Z,2.87
2018-01-19T18:27:15.879Z,3.10
2018-01-19T18:29:44.377Z,1.80
2018-01-19T18:32:14.368Z,2.77
2018-01-19T18:37:19.126Z,3.20
2018-01-19T18:39:47.625Z,2.50
2018-01-19T18:42:16.496Z,3.30
2018-01-19T18:44:44.885Z,2.63
2018-01-19T18:47:14.185Z,2.20
2018-01-19T18:49:42.690Z,2.50
2018-01-19T18:52:11.017Z,2.30
2018-01-19T18:54:40.190Z,2.50
2018-01-19T18:57:08.567Z,2.80
2018-01-19T18:59:42.101Z,2.97
2018-01-19T19:02:14.239Z,2.50
2018-01-19T19:04:42.669Z,2.77
2018-01-19T19:07:11.007Z,2.30
2018-01-19T19:09:39.820Z,2.40
2018-01-19T19:12:08.633Z,2.40
2018-01-19T19:14:36.960Z,2.40
2018-01-19T19:17:05.268Z,3.70
2018-01-19T19:19:33.751Z,2.47
2018-01-19T19:22:02.096Z,3.30
2018-01-19T19:24:30.423Z,2.80
2018-01-19T19:26:58.828Z,3.13
2018-01-19T19:29:27.524Z,3.97
2018-01-19T19:31:55.847Z,3.50
2018-01-19T19:34:24.168Z,3.90
2018-01-19T19:36:52.499Z,3.87
2018-01-19T19:39:20.819Z,3.83
2018-01-19T19:41:49.184Z,4.43
2018-01-19T19:44:17.535Z,3.30
2018-01-19T19:46:46.731Z,3.30
2018-01-19T19:49:15.154Z,3.70
2018-01-19T19:51:43.603Z,3.50
2018-01-19T19:54:11.927Z,2.70
2018-01-19T19:56:40.255Z,3.50
2018-01-19T19:59:08.564Z,3.53
2018-01-19T20:01:36.877Z,2.63
2018-01-19T20:04:05.187Z,2.80
2018-01-19T20:06:33.660Z,3.37
2018-01-19T20:09:02.115Z,2.33
2018-01-19T20:11:31.503Z,2.10
2018-01-19T20:13:59.814Z,2.33
2018-01-19T20:16:28.139Z,2.60
2018-01-19T20:18:56.471Z,3.10
2018-01-19T20:21:25.053Z,2.23
2018-01-19T20:23:53.382Z,2.20
2018-01-19T20:26:21.725Z,1.83
2018-01-19T20:28:50.253Z,1.80
2018-01-19T20:31:18.585Z,2.23
2018-01-19T20:33:46.944Z,2.00
2018-01-19T20:36:15.276Z,1.33
2018-01-19T20:38:43.612Z,1.93
2018-01-19T20:41:11.923Z,2.23
2018-01-19T20:43:40.241Z,1.60
2018-01-19T20:46:08.564Z,1.80
2018-01-19T20:48:36.896Z,1.57
2018-01-19T20:51:05.212Z,1.50
2018-01-19T20:53:33.553Z,1.70
2018-01-19T20:56:01.915Z,0.93
2018-01-19T20:58:30.271Z,1.20
2018-01-19T21:00:58.822Z,1.53
2018-01-19T21:03:27.131Z,1.70
2018-01-19T21:05:55.464Z,1.60
2018-01-19T21:08:23.793Z,1.70
2018-01-19T21:10:52.116Z,2.40
2018-01-19T21:13:22.219Z,1.77
2018-01-19T21:15:50.598Z,1.60
2018-01-19T21:18:19.024Z,2.20
2018-01-19T21:20:47.603Z,1.73
2018-01-19T21:23:15.985Z,2.00
2018-01-19T21:25:44.511Z,1.60
2018-01-19T21:28:12.863Z,1.87
2018-01-19T21:30:42.086Z,2.03
2018-01-19T21:33:10.421Z,2.07
2018-01-19T21:35:38.783Z,2.10
2018-01-19T21:38:07.100Z,2.27
2018-01-19T21:40:35.424Z,2.27
2018-01-19T21:43:03.836Z,1.87
2018-01-19T21:45:32.172Z,1.93
2018-01-19T21:48:00.463Z,1.80
2018-01-19T21:50:28.788Z,1.90
2018-01-19T21:52:57.776Z,2.33
2018-01-19T21:57:58.546Z,2.70
2018-01-19T22:00:26.903Z,2.63
2018-01-19T22:02:55.233Z,2.13
2018-01-19T22:05:23.557Z,2.20
2018-01-19T22:07:51.898Z,2.50
2018-01-19T22:10:20.211Z,1.90
2018-01-19T22:12:48.810Z,3.60
2018-01-19T22:15:17.128Z,2.47
2018-01-19T22:17:45.487Z,2.93
2018-01-19T22:20:13.891Z,2.00
2018-01-19T22:22:42.205Z,1.83
2018-01-19T22:25:10.536Z,2.80
2018-01-19T22:27:38.898Z,2.90
2018-01-19T22:30:07.277Z,3.33
2018-01-19T22:32:35.613Z,2.40
2018-01-19T22:35:04.200Z,3.13
2018-01-19T22:37:33.673Z,2.80
2018-01-19T22:40:02.144Z,2.67
2018-01-19T22:42:30.560Z,3.43
2018-01-19T22:44:58.865Z,3.40
2018-01-19T22:47:27.186Z,3.00
2018-01-19T22:49:55.520Z,3.13
2018-01-19T22:52:23.829Z,2.90
2018-01-19T22:54:52.176Z,2.77
2018-01-19T22:57:20.498Z,2.70
2018-01-19T22:59:49.070Z,2.70
2018-01-19T23:02:17.612Z,2.30
2018-01-19T23:04:46.004Z,1.63
2018-01-19T23:07:15.194Z,3.10
2018-01-19T23:09:43.538Z,3.50
2018-01-19T23:12:11.853Z,3.07
2018-01-19T23:14:40.198Z,2.83
2018-01-19T23:17:09.477Z,2.80
2018-01-19T23:19:38.063Z,2.60
2018-01-19T23:22:06.384Z,2.73
2018-01-19T23:24:34.755Z,2.33
2018-01-19T23:27:03.094Z,2.60
2018-01-19T23:29:31.463Z,3.60
2018-01-19T23:31:59.836Z,4.17
2018-01-19T23:34:28.172Z,3.23
2018-01-19T23:36:56.539Z,3.80
2018-01-19T23:39:24.854Z,3.77
2018-01-19T23:41:53.203Z,2.90
2018-01-19T23:44:21.547Z,3.20
2018-01-19T23:46:49.895Z,3.27
2018-01-19T23:49:18.304Z,3.50
2018-01-19T23:51:46.911Z,3.20
2018-01-19T23:54:15.281Z,4.40
2018-01-19T23:56:44.167Z,3.47
2018-01-19T23:59:12.787Z,3.53
